sensor_id;sensor_type;location;lat;lon;timestamp;P1;durP1;ratioP1;P2;durP2;ratioP2
43529;SDS011;55654;50.966;6.878;2023-07-29T00:01:07;2.55;;;1.17;;
43529;SDS011;55654;50.966;6.878;2023-07-29T00:03:32;6.32;;;1.40;;
43529;SDS011;55654;50.966;6.878;2023-07-29T00:05:58;3.67;;;1.38;;
43529;SDS011;55654;50.966;6.878;2023-07-29T00:08:27;1.65;;;1.13;;
43529;SDS011;55654;50.966;6.878;2023-07-29T00:10:53;2.65;;;1.40;;
43529;SDS011;55654;50.966;6.878;2023-07-29T00:13:19;1.88;;;1.15;;
43529;SDS011;55654;50.966;6.878;2023-07-29T00:15:45;3.00;;;0.75;;
43529;SDS011;55654;50.966;6.878;2023-07-29T00:18:13;3.22;;;1.00;;
43529;SDS011;55654;50.966;6.878;2023-07-29T00:20:44;4.05;;;1.30;;
43529;SDS011;55654;50.966;6.878;2023-07-29T00:23:10;2.05;;;1.38;;
43529;SDS011;55654;50.966;6.878;2023-07-29T00:25:36;3.22;;;1.25;;
43529;SDS011;55654;50.966;6.878;2023-07-29T00:28:02;1.08;;;0.88;;
43529;SDS011;55654;50.966;6.878;2023-07-29T00:30:28;4.47;;;1.42;;
43529;SDS011;55654;50.966;6.878;2023-07-29T00:32:54;5.05;;;1.63;;
43529;SDS011;55654;50.966;6.878;2023-07-29T00:35:20;4.20;;;1.30;;
43529;SDS011;55654;50.966;6.878;2023-07-29T00:37:49;2.80;;;1.42;;
43529;SDS011;55654;50.966;6.878;2023-07-29T00:40:15;1.27;;;0.95;;
43529;SDS011;55654;50.966;6.878;2023-07-29T00:42:42;4.45;;;1.20;;
43529;SDS011;55654;50.966;6.878;2023-07-29T00:45:09;1.83;;;1.52;;
43529;SDS011;55654;50.966;6.878;2023-07-29T00:47:35;1.95;;;1.33;;
43529;SDS011;55654;50.966;6.878;2023-07-29T00:50:06;4.28;;;1.20;;
43529;SDS011;55654;50.966;6.878;2023-07-29T00:52:34;1.17;;;1.08;;
43529;SDS011;55654;50.966;6.878;2023-07-29T00:55:00;2.15;;;1.10;;
43529;SDS011;55654;50.966;6.878;2023-07-29T00:57:27;2.13;;;1.15;;
43529;SDS011;55654;50.966;6.878;2023-07-29T00:59:54;5.38;;;1.45;;
43529;SDS011;55654;50.966;6.878;2023-07-29T01:02:19;2.17;;;1.20;;
43529;SDS011;55654;50.966;6.878;2023-07-29T01:04:46;1.70;;;1.00;;
43529;SDS011;55654;50.966;6.878;2023-07-29T01:12:14;2.38;;;1.10;;
43529;SDS011;55654;50.966;6.878;2023-07-29T01:17:15;1.30;;;1.10;;
43529;SDS011;55654;50.966;6.878;2023-07-29T01:22:25;2.65;;;1.30;;
43529;SDS011;55654;50.966;6.878;2023-07-29T01:24:51;3.03;;;1.20;;
43529;SDS011;55654;50.966;6.878;2023-07-29T01:27:17;2.92;;;1.63;;
43529;SDS011;55654;50.966;6.878;2023-07-29T01:29:44;1.60;;;1.10;;
43529;SDS011;55654;50.966;6.878;2023-07-29T01:32:15;2.97;;;1.02;;
43529;SDS011;55654;50.966;6.878;2023-07-29T01:34:47;3.00;;;1.25;;
43529;SDS011;55654;50.966;6.878;2023-07-29T01:37:15;3.40;;;1.75;;
43529;SDS011;55654;50.966;6.878;2023-07-29T01:39:46;1.50;;;1.15;;
43529;SDS011;55654;50.966;6.878;2023-07-29T01:42:12;2.42;;;1.02;;
43529;SDS011;55654;50.966;6.878;2023-07-29T01:44:38;3.67;;;1.38;;
43529;SDS011;55654;50.966;6.878;2023-07-29T01:47:04;2.28;;;1.50;;
43529;SDS011;55654;50.966;6.878;2023-07-29T01:49:30;2.65;;;1.30;;
43529;SDS011;55654;50.966;6.878;2023-07-29T01:51:59;2.33;;;0.90;;
43529;SDS011;55654;50.966;6.878;2023-07-29T01:54:25;3.83;;;1.10;;
43529;SDS011;55654;50.966;6.878;2023-07-29T01:56:51;3.17;;;1.65;;
43529;SDS011;55654;50.966;6.878;2023-07-29T01:59:17;18.38;;;2.63;;
43529;SDS011;55654;50.966;6.878;2023-07-29T02:01:43;6.88;;;2.90;;
43529;SDS011;55654;50.966;6.878;2023-07-29T02:04:11;13.70;;;3.03;;
43529;SDS011;55654;50.966;6.878;2023-07-29T02:06:37;4.85;;;3.42;;
43529;SDS011;55654;50.966;6.878;2023-07-29T02:09:03;4.95;;;3.60;;
43529;SDS011;55654;50.966;6.878;2023-07-29T02:11:29;5.85;;;3.60;;
43529;SDS011;55654;50.966;6.878;2023-07-29T02:13:55;5.05;;;3.63;;
43529;SDS011;55654;50.966;6.878;2023-07-29T02:16:24;6.80;;;3.97;;
43529;SDS011;55654;50.966;6.878;2023-07-29T02:18:50;7.18;;;4.15;;
43529;SDS011;55654;50.966;6.878;2023-07-29T02:21:16;6.20;;;4.13;;
43529;SDS011;55654;50.966;6.878;2023-07-29T02:23:42;8.95;;;4.88;;
43529;SDS011;55654;50.966;6.878;2023-07-29T02:26:08;4.10;;;3.60;;
43529;SDS011;55654;50.966;6.878;2023-07-29T02:28:34;5.82;;;3.83;;
43529;SDS011;55654;50.966;6.878;2023-07-29T02:33:35;6.18;;;4.65;;
43529;SDS011;55654;50.966;6.878;2023-07-29T02:36:01;7.55;;;4.55;;
43529;SDS011;55654;50.966;6.878;2023-07-29T02:38:30;6.00;;;4.28;;
43529;SDS011;55654;50.966;6.878;2023-07-29T02:40:58;7.00;;;3.92;;
43529;SDS011;55654;50.966;6.878;2023-07-29T02:43:29;4.85;;;3.30;;
43529;SDS011;55654;50.966;6.878;2023-07-29T02:45:57;5.78;;;3.67;;
43529;SDS011;55654;50.966;6.878;2023-07-29T02:48:24;4.90;;;3.65;;
43529;SDS011;55654;50.966;6.878;2023-07-29T02:50:50;5.85;;;4.45;;
43529;SDS011;55654;50.966;6.878;2023-07-29T02:53:16;7.25;;;4.50;;
43529;SDS011;55654;50.966;6.878;2023-07-29T02:55:42;5.40;;;3.75;;
43529;SDS011;55654;50.966;6.878;2023-07-29T02:58:08;7.28;;;4.28;;
43529;SDS011;55654;50.966;6.878;2023-07-29T03:00:34;5.78;;;4.13;;
43529;SDS011;55654;50.966;6.878;2023-07-29T03:03:00;4.10;;;3.10;;
43529;SDS011;55654;50.966;6.878;2023-07-29T03:05:29;4.45;;;3.45;;
43529;SDS011;55654;50.966;6.878;2023-07-29T03:07:55;5.35;;;3.00;;
43529;SDS011;55654;50.966;6.878;2023-07-29T03:10:21;6.30;;;3.03;;
43529;SDS011;55654;50.966;6.878;2023-07-29T03:12:47;4.88;;;2.83;;
43529;SDS011;55654;50.966;6.878;2023-07-29T03:15:13;4.30;;;2.75;;
43529;SDS011;55654;50.966;6.878;2023-07-29T03:17:41;6.00;;;2.75;;
43529;SDS011;55654;50.966;6.878;2023-07-29T03:20:07;3.50;;;2.47;;
43529;SDS011;55654;50.966;6.878;2023-07-29T03:22:33;3.58;;;2.38;;
43529;SDS011;55654;50.966;6.878;2023-07-29T03:24:59;4.47;;;2.22;;
43529;SDS011;55654;50.966;6.878;2023-07-29T03:27:25;6.75;;;2.80;;
43529;SDS011;55654;50.966;6.878;2023-07-29T03:29:54;5.13;;;2.53;;
43529;SDS011;55654;50.966;6.878;2023-07-29T03:32:20;6.57;;;2.95;;
43529;SDS011;55654;50.966;6.878;2023-07-29T03:34:46;5.47;;;3.35;;
43529;SDS011;55654;50.966;6.878;2023-07-29T03:37:14;6.53;;;3.05;;
43529;SDS011;55654;50.966;6.878;2023-07-29T03:39:40;5.65;;;3.90;;
43529;SDS011;55654;50.966;6.878;2023-07-29T03:42:08;7.03;;;3.10;;
43529;SDS011;55654;50.966;6.878;2023-07-29T03:44:34;6.35;;;4.03;;
43529;SDS011;55654;50.966;6.878;2023-07-29T03:47:00;7.32;;;3.97;;
43529;SDS011;55654;50.966;6.878;2023-07-29T03:49:26;8.45;;;4.18;;
43529;SDS011;55654;50.966;6.878;2023-07-29T03:51:52;8.93;;;3.33;;
43529;SDS011;55654;50.966;6.878;2023-07-29T03:54:18;5.22;;;3.10;;
43529;SDS011;55654;50.966;6.878;2023-07-29T03:56:44;9.30;;;4.30;;
43529;SDS011;55654;50.966;6.878;2023-07-29T03:59:10;4.55;;;3.40;;
43529;SDS011;55654;50.966;6.878;2023-07-29T04:01:39;9.07;;;3.30;;
43529;SDS011;55654;50.966;6.878;2023-07-29T04:04:05;6.07;;;3.00;;
43529;SDS011;55654;50.966;6.878;2023-07-29T04:06:33;8.25;;;3.70;;
43529;SDS011;55654;50.966;6.878;2023-07-29T04:08:59;7.20;;;3.17;;
43529;SDS011;55654;50.966;6.878;2023-07-29T04:11:26;5.03;;;3.63;;
43529;SDS011;55654;50.966;6.878;2023-07-29T04:13:52;6.57;;;3.78;;
43529;SDS011;55654;50.966;6.878;2023-07-29T04:16:18;6.65;;;3.40;;
43529;SDS011;55654;50.966;6.878;2023-07-29T04:18:44;16.92;;;4.22;;
43529;SDS011;55654;50.966;6.878;2023-07-29T04:21:10;7.10;;;3.38;;
43529;SDS011;55654;50.966;6.878;2023-07-29T04:23:36;8.20;;;3.25;;
43529;SDS011;55654;50.966;6.878;2023-07-29T04:26:02;5.43;;;3.28;;
43529;SDS011;55654;50.966;6.878;2023-07-29T04:28:30;7.03;;;4.40;;
43529;SDS011;55654;50.966;6.878;2023-07-29T04:30:56;8.48;;;4.22;;
43529;SDS011;55654;50.966;6.878;2023-07-29T04:33:22;7.35;;;4.03;;
43529;SDS011;55654;50.966;6.878;2023-07-29T04:35:48;4.35;;;3.70;;
43529;SDS011;55654;50.966;6.878;2023-07-29T04:38:14;5.97;;;4.03;;
43529;SDS011;55654;50.966;6.878;2023-07-29T04:40:40;8.35;;;4.35;;
43529;SDS011;55654;50.966;6.878;2023-07-29T04:43:08;7.40;;;4.18;;
43529;SDS011;55654;50.966;6.878;2023-07-29T04:45:42;8.90;;;4.43;;
43529;SDS011;55654;50.966;6.878;2023-07-29T04:48:08;6.55;;;4.35;;
43529;SDS011;55654;50.966;6.878;2023-07-29T04:50:34;6.03;;;4.50;;
43529;SDS011;55654;50.966;6.878;2023-07-29T04:53:00;7.68;;;5.22;;
43529;SDS011;55654;50.966;6.878;2023-07-29T04:55:26;6.38;;;5.00;;
43529;SDS011;55654;50.966;6.878;2023-07-29T04:57:52;10.63;;;4.90;;
43529;SDS011;55654;50.966;6.878;2023-07-29T05:00:18;8.80;;;5.25;;
43529;SDS011;55654;50.966;6.878;2023-07-29T05:02:46;8.48;;;5.25;;
43529;SDS011;55654;50.966;6.878;2023-07-29T05:05:12;12.35;;;4.68;;
43529;SDS011;55654;50.966;6.878;2023-07-29T05:07:38;9.30;;;5.38;;
43529;SDS011;55654;50.966;6.878;2023-07-29T05:10:06;8.18;;;5.30;;
43529;SDS011;55654;50.966;6.878;2023-07-29T05:12:35;8.77;;;5.40;;
43529;SDS011;55654;50.966;6.878;2023-07-29T05:15:01;8.95;;;5.85;;
43529;SDS011;55654;50.966;6.878;2023-07-29T05:17:27;6.03;;;5.15;;
43529;SDS011;55654;50.966;6.878;2023-07-29T05:19:53;8.23;;;4.82;;
43529;SDS011;55654;50.966;6.878;2023-07-29T05:22:19;6.82;;;4.60;;
43529;SDS011;55654;50.966;6.878;2023-07-29T05:24:45;6.35;;;5.03;;
43529;SDS011;55654;50.966;6.878;2023-07-29T05:27:11;5.43;;;4.25;;
43529;SDS011;55654;50.966;6.878;2023-07-29T05:29:37;7.18;;;4.55;;
43529;SDS011;55654;50.966;6.878;2023-07-29T05:32:05;4.53;;;4.13;;
43529;SDS011;55654;50.966;6.878;2023-07-29T05:34:31;6.97;;;4.55;;
43529;SDS011;55654;50.966;6.878;2023-07-29T05:36:57;7.75;;;4.40;;
43529;SDS011;55654;50.966;6.878;2023-07-29T05:39:23;7.40;;;4.45;;
43529;SDS011;55654;50.966;6.878;2023-07-29T05:41:52;6.50;;;4.65;;
43529;SDS011;55654;50.966;6.878;2023-07-29T05:44:18;6.53;;;4.05;;
43529;SDS011;55654;50.966;6.878;2023-07-29T05:46:44;6.10;;;3.97;;
43529;SDS011;55654;50.966;6.878;2023-07-29T05:49:10;10.15;;;3.53;;
43529;SDS011;55654;50.966;6.878;2023-07-29T05:51:36;9.63;;;3.97;;
43529;SDS011;55654;50.966;6.878;2023-07-29T05:54:02;4.43;;;3.65;;
43529;SDS011;55654;50.966;6.878;2023-07-29T05:56:28;6.22;;;3.10;;
43529;SDS011;55654;50.966;6.878;2023-07-29T05:58:54;6.45;;;3.47;;
43529;SDS011;55654;50.966;6.878;2023-07-29T06:01:20;4.72;;;3.15;;
43529;SDS011;55654;50.966;6.878;2023-07-29T06:03:49;5.05;;;3.33;;
43529;SDS011;55654;50.966;6.878;2023-07-29T06:06:15;4.80;;;2.80;;
43529;SDS011;55654;50.966;6.878;2023-07-29T06:08:41;5.45;;;2.75;;
43529;SDS011;55654;50.966;6.878;2023-07-29T06:11:09;6.10;;;3.08;;
43529;SDS011;55654;50.966;6.878;2023-07-29T06:13:35;4.43;;;3.10;;
43529;SDS011;55654;50.966;6.878;2023-07-29T06:16:01;4.05;;;3.00;;
43529;SDS011;55654;50.966;6.878;2023-07-29T06:18:27;4.47;;;3.13;;
43529;SDS011;55654;50.966;6.878;2023-07-29T06:20:55;4.18;;;2.30;;
43529;SDS011;55654;50.966;6.878;2023-07-29T06:23:21;4.32;;;2.72;;
43529;SDS011;55654;50.966;6.878;2023-07-29T06:25:47;7.18;;;2.40;;
43529;SDS011;55654;50.966;6.878;2023-07-29T06:28:13;2.92;;;2.10;;
43529;SDS011;55654;50.966;6.878;2023-07-29T06:30:39;6.25;;;4.28;;
43529;SDS011;55654;50.966;6.878;2023-07-29T06:33:05;3.75;;;1.80;;
43529;SDS011;55654;50.966;6.878;2023-07-29T06:35:31;2.33;;;1.60;;
43529;SDS011;55654;50.966;6.878;2023-07-29T06:37:57;3.13;;;1.77;;
43529;SDS011;55654;50.966;6.878;2023-07-29T06:40:26;4.03;;;2.08;;
43529;SDS011;55654;50.966;6.878;2023-07-29T06:42:52;3.90;;;1.67;;
43529;SDS011;55654;50.966;6.878;2023-07-29T06:45:18;3.70;;;1.45;;
43529;SDS011;55654;50.966;6.878;2023-07-29T06:47:44;4.35;;;1.70;;
43529;SDS011;55654;50.966;6.878;2023-07-29T06:50:13;2.90;;;0.90;;
43529;SDS011;55654;50.966;6.878;2023-07-29T06:52:39;4.25;;;1.45;;
43529;SDS011;55654;50.966;6.878;2023-07-29T06:55:05;5.80;;;1.40;;
43529;SDS011;55654;50.966;6.878;2023-07-29T06:57:31;4.22;;;1.58;;
43529;SDS011;55654;50.966;6.878;2023-07-29T07:00:02;3.88;;;1.27;;
43529;SDS011;55654;50.966;6.878;2023-07-29T07:02:31;3.45;;;1.17;;
43529;SDS011;55654;50.966;6.878;2023-07-29T07:04:57;3.25;;;1.65;;
43529;SDS011;55654;50.966;6.878;2023-07-29T07:07:23;4.10;;;1.60;;
43529;SDS011;55654;50.966;6.878;2023-07-29T07:09:51;6.15;;;1.40;;
43529;SDS011;55654;50.966;6.878;2023-07-29T07:12:20;6.40;;;1.50;;
43529;SDS011;55654;50.966;6.878;2023-07-29T07:14:46;3.05;;;1.30;;
43529;SDS011;55654;50.966;6.878;2023-07-29T07:17:14;3.55;;;1.30;;
43529;SDS011;55654;50.966;6.878;2023-07-29T07:19:40;2.78;;;1.10;;
43529;SDS011;55654;50.966;6.878;2023-07-29T07:22:06;6.80;;;1.70;;
43529;SDS011;55654;50.966;6.878;2023-07-29T07:24:32;3.72;;;1.70;;
43529;SDS011;55654;50.966;6.878;2023-07-29T07:26:58;5.05;;;1.40;;
43529;SDS011;55654;50.966;6.878;2023-07-29T07:29:24;2.97;;;1.17;;
43529;SDS011;55654;50.966;6.878;2023-07-29T07:31:53;4.60;;;1.20;;
43529;SDS011;55654;50.966;6.878;2023-07-29T07:34:19;8.85;;;1.17;;
43529;SDS011;55654;50.966;6.878;2023-07-29T07:36:48;1.75;;;1.23;;
43529;SDS011;55654;50.966;6.878;2023-07-29T07:39:14;7.15;;;1.60;;
43529;SDS011;55654;50.966;6.878;2023-07-29T07:41:43;4.00;;;1.38;;
43529;SDS011;55654;50.966;6.878;2023-07-29T07:44:11;2.85;;;1.10;;
43529;SDS011;55654;50.966;6.878;2023-07-29T07:46:40;3.23;;;0.93;;
43529;SDS011;55654;50.966;6.878;2023-07-29T07:49:09;5.47;;;1.13;;
43529;SDS011;55654;50.966;6.878;2023-07-29T07:51:35;2.78;;;1.25;;
43529;SDS011;55654;50.966;6.878;2023-07-29T07:54:01;1.88;;;1.27;;
43529;SDS011;55654;50.966;6.878;2023-07-29T07:56:27;2.67;;;1.23;;
43529;SDS011;55654;50.966;6.878;2023-07-29T07:58:53;3.75;;;1.23;;
43529;SDS011;55654;50.966;6.878;2023-07-29T08:01:19;2.45;;;1.10;;
43529;SDS011;55654;50.966;6.878;2023-07-29T08:03:44;3.53;;;1.20;;
43529;SDS011;55654;50.966;6.878;2023-07-29T08:06:10;3.15;;;1.10;;
43529;SDS011;55654;50.966;6.878;2023-07-29T08:08:39;3.60;;;1.15;;
43529;SDS011;55654;50.966;6.878;2023-07-29T08:11:05;1.95;;;1.15;;
43529;SDS011;55654;50.966;6.878;2023-07-29T08:13:31;1.90;;;1.20;;
43529;SDS011;55654;50.966;6.878;2023-07-29T08:15:57;2.30;;;1.23;;
43529;SDS011;55654;50.966;6.878;2023-07-29T08:18:23;4.05;;;1.30;;
43529;SDS011;55654;50.966;6.878;2023-07-29T08:23:19;3.95;;;0.77;;
43529;SDS011;55654;50.966;6.878;2023-07-29T08:25:50;1.95;;;1.23;;
43529;SDS011;55654;50.966;6.878;2023-07-29T08:28:16;2.55;;;1.20;;
43529;SDS011;55654;50.966;6.878;2023-07-29T08:30:42;4.32;;;0.90;;
43529;SDS011;55654;50.966;6.878;2023-07-29T08:33:08;1.95;;;0.77;;
43529;SDS011;55654;50.966;6.878;2023-07-29T08:35:34;4.05;;;0.85;;
43529;SDS011;55654;50.966;6.878;2023-07-29T08:38:01;1.70;;;0.82;;
43529;SDS011;55654;50.966;6.878;2023-07-29T08:40:29;2.33;;;1.25;;
43529;SDS011;55654;50.966;6.878;2023-07-29T08:42:55;2.88;;;0.63;;
43529;SDS011;55654;50.966;6.878;2023-07-29T08:45:23;1.92;;;0.75;;
43529;SDS011;55654;50.966;6.878;2023-07-29T08:47:50;2.15;;;0.80;;
43529;SDS011;55654;50.966;6.878;2023-07-29T08:50:20;2.10;;;0.77;;
43529;SDS011;55654;50.966;6.878;2023-07-29T08:52:46;3.47;;;0.50;;
43529;SDS011;55654;50.966;6.878;2023-07-29T08:55:13;1.75;;;0.65;;
43529;SDS011;55654;50.966;6.878;2023-07-29T08:57:41;2.85;;;0.80;;
43529;SDS011;55654;50.966;6.878;2023-07-29T09:00:08;2.03;;;0.70;;
43529;SDS011;55654;50.966;6.878;2023-07-29T09:02:34;6.10;;;1.25;;
43529;SDS011;55654;50.966;6.878;2023-07-29T09:05:01;1.65;;;0.75;;
43529;SDS011;55654;50.966;6.878;2023-07-29T09:07:27;2.13;;;0.93;;
43529;SDS011;55654;50.966;6.878;2023-07-29T09:09:54;1.17;;;0.50;;
43529;SDS011;55654;50.966;6.878;2023-07-29T09:12:20;1.70;;;0.82;;
43529;SDS011;55654;50.966;6.878;2023-07-29T09:14:46;0.90;;;0.50;;
43529;SDS011;55654;50.966;6.878;2023-07-29T09:17:12;2.05;;;0.95;;
43529;SDS011;55654;50.966;6.878;2023-07-29T09:19:38;2.33;;;1.00;;
43529;SDS011;55654;50.966;6.878;2023-07-29T09:22:04;2.38;;;1.00;;
43529;SDS011;55654;50.966;6.878;2023-07-29T09:24:32;1.02;;;0.68;;
43529;SDS011;55654;50.966;6.878;2023-07-29T09:26:59;1.45;;;0.52;;
43529;SDS011;55654;50.966;6.878;2023-07-29T09:29:28;2.30;;;0.98;;
43529;SDS011;55654;50.966;6.878;2023-07-29T09:31:54;0.82;;;0.70;;
43529;SDS011;55654;50.966;6.878;2023-07-29T09:34:21;2.15;;;0.88;;
43529;SDS011;55654;50.966;6.878;2023-07-29T09:36:49;1.33;;;0.50;;
43529;SDS011;55654;50.966;6.878;2023-07-29T09:39:19;3.95;;;0.57;;
43529;SDS011;55654;50.966;6.878;2023-07-29T09:41:51;0.80;;;0.60;;
43529;SDS011;55654;50.966;6.878;2023-07-29T09:44:20;4.15;;;1.20;;
43529;SDS011;55654;50.966;6.878;2023-07-29T09:46:46;2.22;;;0.90;;
43529;SDS011;55654;50.966;6.878;2023-07-29T09:49:12;2.08;;;0.90;;
43529;SDS011;55654;50.966;6.878;2023-07-29T09:51:38;4.60;;;1.10;;
43529;SDS011;55654;50.966;6.878;2023-07-29T09:54:04;2.03;;;0.90;;
43529;SDS011;55654;50.966;6.878;2023-07-29T09:56:30;2.28;;;0.80;;
43529;SDS011;55654;50.966;6.878;2023-07-29T09:58:56;2.33;;;0.88;;
43529;SDS011;55654;50.966;6.878;2023-07-29T10:01:23;1.77;;;1.10;;
43529;SDS011;55654;50.966;6.878;2023-07-29T10:03:49;2.20;;;1.13;;
43529;SDS011;55654;50.966;6.878;2023-07-29T10:06:15;1.40;;;0.80;;
43529;SDS011;55654;50.966;6.878;2023-07-29T10:08:48;3.03;;;1.02;;
43529;SDS011;55654;50.966;6.878;2023-07-29T10:11:14;2.45;;;1.00;;
43529;SDS011;55654;50.966;6.878;2023-07-29T10:13:41;2.15;;;0.77;;
43529;SDS011;55654;50.966;6.878;2023-07-29T10:16:07;2.42;;;1.35;;
43529;SDS011;55654;50.966;6.878;2023-07-29T10:18:33;1.23;;;0.80;;
43529;SDS011;55654;50.966;6.878;2023-07-29T10:21:02;2.55;;;0.90;;
43529;SDS011;55654;50.966;6.878;2023-07-29T10:23:32;3.40;;;0.95;;
43529;SDS011;55654;50.966;6.878;2023-07-29T10:26:04;0.85;;;0.57;;
43529;SDS011;55654;50.966;6.878;2023-07-29T10:28:31;2.42;;;1.27;;
43529;SDS011;55654;50.966;6.878;2023-07-29T10:30:57;4.13;;;1.00;;
43529;SDS011;55654;50.966;6.878;2023-07-29T10:33:24;2.20;;;1.30;;
43529;SDS011;55654;50.966;6.878;2023-07-29T10:35:50;4.10;;;1.27;;
43529;SDS011;55654;50.966;6.878;2023-07-29T10:38:16;1.83;;;0.90;;
43529;SDS011;55654;50.966;6.878;2023-07-29T10:40:52;2.65;;;1.00;;
43529;SDS011;55654;50.966;6.878;2023-07-29T10:43:26;1.00;;;0.80;;
43529;SDS011;55654;50.966;6.878;2023-07-29T10:45:53;1.25;;;1.00;;
43529;SDS011;55654;50.966;6.878;2023-07-29T10:51:23;4.30;;;1.20;;
43529;SDS011;55654;50.966;6.878;2023-07-29T10:54:04;1.13;;;0.95;;
43529;SDS011;55654;50.966;6.878;2023-07-29T10:56:35;2.47;;;1.17;;
43529;SDS011;55654;50.966;6.878;2023-07-29T10:59:31;1.83;;;0.88;;
43529;SDS011;55654;50.966;6.878;2023-07-29T11:09:39;2.50;;;1.02;;
43529;SDS011;55654;50.966;6.878;2023-07-29T11:12:33;2.33;;;0.95;;
43529;SDS011;55654;50.966;6.878;2023-07-29T11:14:54;1.02;;;0.75;;
43529;SDS011;55654;50.966;6.878;2023-07-29T11:17:20;1.58;;;1.02;;
43529;SDS011;55654;50.966;6.878;2023-07-29T11:19:46;2.08;;;0.88;;
43529;SDS011;55654;50.966;6.878;2023-07-29T11:22:15;2.60;;;1.40;;
43529;SDS011;55654;50.966;6.878;2023-07-29T11:24:44;1.75;;;1.23;;
43529;SDS011;55654;50.966;6.878;2023-07-29T11:27:13;1.58;;;0.95;;
43529;SDS011;55654;50.966;6.878;2023-07-29T11:29:39;3.38;;;0.93;;
43529;SDS011;55654;50.966;6.878;2023-07-29T11:32:05;1.95;;;1.15;;
43529;SDS011;55654;50.966;6.878;2023-07-29T11:34:31;1.45;;;0.90;;
43529;SDS011;55654;50.966;6.878;2023-07-29T11:36:57;1.08;;;0.63;;
43529;SDS011;55654;50.966;6.878;2023-07-29T11:39:23;1.50;;;0.95;;
43529;SDS011;55654;50.966;6.878;2023-07-29T11:41:49;2.88;;;0.80;;
43529;SDS011;55654;50.966;6.878;2023-07-29T11:44:18;1.38;;;0.90;;
43529;SDS011;55654;50.966;6.878;2023-07-29T11:46:44;1.02;;;0.77;;
43529;SDS011;55654;50.966;6.878;2023-07-29T11:49:10;4.43;;;0.80;;
43529;SDS011;55654;50.966;6.878;2023-07-29T11:51:36;1.25;;;0.90;;
43529;SDS011;55654;50.966;6.878;2023-07-29T11:54:02;1.50;;;0.88;;
43529;SDS011;55654;50.966;6.878;2023-07-29T11:56:29;2.85;;;0.85;;
43529;SDS011;55654;50.966;6.878;2023-07-29T11:58:57;2.95;;;1.10;;
43529;SDS011;55654;50.966;6.878;2023-07-29T12:01:23;1.35;;;0.75;;
43529;SDS011;55654;50.966;6.878;2023-07-29T12:03:50;3.25;;;1.10;;
43529;SDS011;55654;50.966;6.878;2023-07-29T12:06:18;2.47;;;0.65;;
43529;SDS011;55654;50.966;6.878;2023-07-29T12:08:44;0.95;;;0.75;;
43529;SDS011;55654;50.966;6.878;2023-07-29T12:11:13;1.27;;;0.88;;
43529;SDS011;55654;50.966;6.878;2023-07-29T12:13:41;1.42;;;0.93;;
43529;SDS011;55654;50.966;6.878;2023-07-29T12:16:07;1.35;;;0.88;;
43529;SDS011;55654;50.966;6.878;2023-07-29T12:18:33;1.25;;;0.85;;
43529;SDS011;55654;50.966;6.878;2023-07-29T12:20:59;1.13;;;0.70;;
43529;SDS011;55654;50.966;6.878;2023-07-29T12:23:25;1.02;;;0.88;;
43529;SDS011;55654;50.966;6.878;2023-07-29T12:25:56;2.13;;;1.00;;
43529;SDS011;55654;50.966;6.878;2023-07-29T12:28:23;3.42;;;1.33;;
43529;SDS011;55654;50.966;6.878;2023-07-29T12:30:55;3.33;;;1.27;;
43529;SDS011;55654;50.966;6.878;2023-07-29T12:35:57;2.00;;;1.25;;
43529;SDS011;55654;50.966;6.878;2023-07-29T12:38:25;5.20;;;2.97;;
43529;SDS011;55654;50.966;6.878;2023-07-29T12:40:51;1.40;;;1.05;;
43529;SDS011;55654;50.966;6.878;2023-07-29T12:43:17;1.70;;;1.20;;
43529;SDS011;55654;50.966;6.878;2023-07-29T12:45:45;2.00;;;1.13;;
43529;SDS011;55654;50.966;6.878;2023-07-29T12:48:11;2.00;;;1.45;;
43529;SDS011;55654;50.966;6.878;2023-07-29T12:50:38;2.55;;;0.82;;
43529;SDS011;55654;50.966;6.878;2023-07-29T12:53:04;1.00;;;0.80;;
43529;SDS011;55654;50.966;6.878;2023-07-29T12:55:33;1.13;;;0.80;;
43529;SDS011;55654;50.966;6.878;2023-07-29T12:57:59;1.23;;;1.00;;
43529;SDS011;55654;50.966;6.878;2023-07-29T13:00:25;1.10;;;0.80;;
43529;SDS011;55654;50.966;6.878;2023-07-29T13:02:51;1.10;;;0.80;;
43529;SDS011;55654;50.966;6.878;2023-07-29T13:05:17;2.75;;;0.80;;
43529;SDS011;55654;50.966;6.878;2023-07-29T13:07:43;2.15;;;0.75;;
43529;SDS011;55654;50.966;6.878;2023-07-29T13:10:10;1.30;;;0.93;;
43529;SDS011;55654;50.966;6.878;2023-07-29T13:12:36;1.33;;;1.20;;
43529;SDS011;55654;50.966;6.878;2023-07-29T13:15:02;1.10;;;1.00;;
43529;SDS011;55654;50.966;6.878;2023-07-29T13:17:28;1.58;;;0.68;;
43529;SDS011;55654;50.966;6.878;2023-07-29T13:19:54;1.83;;;1.10;;
43529;SDS011;55654;50.966;6.878;2023-07-29T13:22:20;1.90;;;1.15;;
43529;SDS011;55654;50.966;6.878;2023-07-29T13:24:51;2.03;;;1.17;;
43529;SDS011;55654;50.966;6.878;2023-07-29T13:27:20;3.65;;;1.70;;
43529;SDS011;55654;50.966;6.878;2023-07-29T13:29:47;1.95;;;1.40;;
43529;SDS011;55654;50.966;6.878;2023-07-29T13:32:13;3.53;;;1.38;;
43529;SDS011;55654;50.966;6.878;2023-07-29T13:34:41;2.42;;;0.98;;
43529;SDS011;55654;50.966;6.878;2023-07-29T13:37:07;2.00;;;1.27;;
43529;SDS011;55654;50.966;6.878;2023-07-29T13:39:33;2.67;;;1.67;;
43529;SDS011;55654;50.966;6.878;2023-07-29T13:41:59;2.55;;;1.50;;
43529;SDS011;55654;50.966;6.878;2023-07-29T13:44:25;4.82;;;1.48;;
43529;SDS011;55654;50.966;6.878;2023-07-29T13:46:51;10.43;;;2.22;;
43529;SDS011;55654;50.966;6.878;2023-07-29T13:49:20;7.82;;;3.10;;
43529;SDS011;55654;50.966;6.878;2023-07-29T13:51:46;23.42;;;2.72;;
43529;SDS011;55654;50.966;6.878;2023-07-29T13:54:12;7.10;;;2.70;;
43529;SDS011;55654;50.966;6.878;2023-07-29T13:56:38;7.30;;;3.20;;
43529;SDS011;55654;50.966;6.878;2023-07-29T13:59:04;6.10;;;2.67;;
43529;SDS011;55654;50.966;6.878;2023-07-29T14:01:29;4.43;;;2.42;;
43529;SDS011;55654;50.966;6.878;2023-07-29T14:03:55;8.95;;;3.50;;
43529;SDS011;55654;50.966;6.878;2023-07-29T14:06:21;7.63;;;3.80;;
43529;SDS011;55654;50.966;6.878;2023-07-29T14:08:50;13.27;;;3.97;;
43529;SDS011;55654;50.966;6.878;2023-07-29T14:11:18;6.53;;;3.10;;
43529;SDS011;55654;50.966;6.878;2023-07-29T14:13:44;7.70;;;3.78;;
43529;SDS011;55654;50.966;6.878;2023-07-29T14:16:10;4.43;;;3.28;;
43529;SDS011;55654;50.966;6.878;2023-07-29T14:18:36;8.77;;;5.68;;
43529;SDS011;55654;50.966;6.878;2023-07-29T14:21:02;3.13;;;2.60;;
43529;SDS011;55654;50.966;6.878;2023-07-29T14:23:28;3.50;;;2.92;;
43529;SDS011;55654;50.966;6.878;2023-07-29T14:25:57;4.57;;;2.70;;
43529;SDS011;55654;50.966;6.878;2023-07-29T14:28:26;3.50;;;2.67;;
43529;SDS011;55654;50.966;6.878;2023-07-29T14:30:51;5.20;;;2.13;;
43529;SDS011;55654;50.966;6.878;2023-07-29T14:33:17;5.20;;;3.47;;
43529;SDS011;55654;50.966;6.878;2023-07-29T14:35:43;7.82;;;3.10;;
43529;SDS011;55654;50.966;6.878;2023-07-29T14:38:12;2.40;;;1.88;;
43529;SDS011;55654;50.966;6.878;2023-07-29T14:40:38;2.47;;;1.60;;
43529;SDS011;55654;50.966;6.878;2023-07-29T14:43:04;4.85;;;1.60;;
43529;SDS011;55654;50.966;6.878;2023-07-29T14:45:30;4.35;;;2.08;;
43529;SDS011;55654;50.966;6.878;2023-07-29T14:47:56;11.80;;;3.00;;
43529;SDS011;55654;50.966;6.878;2023-07-29T14:50:22;3.40;;;1.88;;
43529;SDS011;55654;50.966;6.878;2023-07-29T14:52:47;5.95;;;2.20;;
43529;SDS011;55654;50.966;6.878;2023-07-29T14:55:13;2.97;;;2.13;;
43529;SDS011;55654;50.966;6.878;2023-07-29T14:57:39;2.40;;;1.90;;
43529;SDS011;55654;50.966;6.878;2023-07-29T15:00:08;4.07;;;2.35;;
43529;SDS011;55654;50.966;6.878;2023-07-29T15:02:34;4.05;;;2.55;;
43529;SDS011;55654;50.966;6.878;2023-07-29T15:05:00;3.22;;;2.33;;
43529;SDS011;55654;50.966;6.878;2023-07-29T15:07:26;3.67;;;2.15;;
43529;SDS011;55654;50.966;6.878;2023-07-29T15:09:52;3.17;;;2.17;;
43529;SDS011;55654;50.966;6.878;2023-07-29T15:12:18;4.40;;;3.10;;
43529;SDS011;55654;50.966;6.878;2023-07-29T15:14:44;3.88;;;2.60;;